• Join FlightAware (Why Join?)
  • Login
  • US Flag 
10:26PM EST


 

Airport Tracker/Info


-or-


 

Live Flight TrackerFlight Track Log ✈ SKW5535 ✈ 18-Aug-2013 ✈ KMSO - KDEN

Flight Track Log - Related Links

Times and Time Zones

All times are in EDT time to prevent confusion due to time zone crossing. See the SKW5535 flight status page for this flight to view local times or setup timezone preferences in your user account.

Time Position Orientation Groundspeed Altitude Reporting Facility
EDT Latitude Longitude Course Direction KTS MPH feet Rate Location/Type
03:02PM 46.9722 -114.1889 311° West 204 235 6,000  Level Salt Lake Center
03:04PM 46.8748 -114.0333 180° South  Level Estimated
03:04PM 46.9733 -114.3267 180° South 263 303 9,600  Level Salt Lake Center
03:05PM 46.4042 -113.8260 139° Southeast  Level FlightAware Approximate
03:05PM 46.8900 -114.2872 162° South 301 346 11,100  Level Salt Lake Center
03:06PM 46.3337 -113.6950 131° Southeast  Level FlightAware Approximate
03:06PM 46.8078 -114.2350 157° South 325 374 12,400  Level Salt Lake Center
03:07PM 46.2612 -113.5653 130° Southeast  Level FlightAware Approximate
03:07PM 46.7097 -114.1778 158° South 353 406 13,500  Level Salt Lake Center
03:08PM 46.6158 -114.1197 157° South 367 422 14,700 1,140 Climbing Salt Lake Center
03:09PM 46.5250 -114.0261 145° Southeast 382 440 15,900 1,080 Climbing Salt Lake Center
03:11PM 46.4583 -113.9044 128° Southeast 385 443 17,000 900 Climbing Salt Lake Center
03:12PM 46.3819 -113.7725 130° Southeast 396 456 17,800 900 Climbing Salt Lake Center
03:13PM 46.3119 -113.6481 129° Southeast 401 461 18,900 960 Climbing Salt Lake Center
03:14PM 46.2406 -113.5250 130° Southeast 401 461 19,900 780 Climbing Salt Lake Center
03:15PM 46.1736 -113.4131 131° Southeast 400 460 20,600 720 Climbing Salt Lake Center
03:16PM 46.0917 -113.2753 131° Southeast 405 466 21,500 720 Climbing Salt Lake Center
03:17PM 46.0183 -113.1478 130° Southeast 413 475 22,200 660 Climbing Salt Lake Center
03:18PM 45.9436 -113.0186 130° Southeast 419 482 22,900 720 Climbing Salt Lake Center
03:19PM 45.8697 -112.8908 130° Southeast 418 481 23,700 960 Climbing Salt Lake Center
03:20PM 45.7783 -112.7386 131° Southeast 419 482 24,900 840 Climbing Salt Lake Center
03:21PM 45.7039 -112.6117 130° Southeast 418 481 25,500 480 Climbing Salt Lake Center
03:22PM 45.6275 -112.4836 130° Southeast 424 488 26,000 480 Climbing Salt Lake Center
03:23PM 45.5497 -112.3533 130° Southeast 432 497 26,500 480 Climbing Salt Lake Center
03:24PM 45.4714 -112.2228 131° Southeast 434 499 27,000 480 Climbing Salt Lake Center
03:25PM 45.3756 -112.0647 131° Southeast 440 506 27,600 480 Climbing Salt Lake Center
03:26PM 45.2956 -111.9331 131° Southeast 442 509 28,100 480 Climbing Salt Lake Center
03:27PM 45.2150 -111.7997 131° Southeast 446 513 28,600 480 Climbing Salt Lake Center
03:28PM 45.1339 -111.6678 131° Southeast 447 514 29,100 480 Climbing Salt Lake Center
03:29PM 45.0467 -111.5253 131° Southeast 444 511 29,700 480 Climbing Salt Lake Center
03:30PM 44.9672 -111.3981 131° Southeast 447 514 30,100 480 Climbing Salt Lake Center
03:31PM 44.8761 -111.2511 131° Southeast 444 511 30,700 480 Climbing Salt Lake Center
03:32PM 44.7981 -111.1258 131° Southeast 441 507 31,100 120 Climbing Salt Lake Center
03:33PM 44.7031 -110.9758 132° Southeast 455 524 31,000 -60 Descending Salt Lake Center
03:34PM 44.6200 -110.8447 132° Southeast 465 535 31,000  Level Salt Lake Center
03:35PM 44.5364 -110.7119 131° Southeast 470 541 31,000  Level Salt Lake Center
03:36PM 44.4372 -110.5569 132° Southeast 477 549 31,000  Level Salt Lake Center
03:37PM 44.3517 -110.4225 132° Southeast 481 554 31,000  Level Salt Lake Center
03:38PM 44.2517 -110.2692 132° Southeast 479 551 31,000  Level Salt Lake Center
03:39PM 44.1656 -110.1347 132° Southeast 485 558 31,000  Level Salt Lake Center
03:41PM 44.0650 -109.9789 132° Southeast 484 557 31,000  Level Salt Lake Center
03:42PM 43.9769 -109.8464 133° Southeast 487 560 31,000  Level Salt Lake Center
03:43PM 43.8758 -109.6883 132° Southeast 490 564 31,000  Level Salt Lake Center
03:44PM 43.7872 -109.5589 133° Southeast 486 559 31,000  Level Salt Lake Center
03:45PM 43.6917 -109.4172 133° Southeast 482 555 31,000  Level Salt Lake Center
03:46PM 43.6003 -109.2817 133° Southeast 483 556 31,000 60 Level Salt Lake Center
03:47PM 43.5092 -109.1444 132° Southeast 486 559 31,200 480 Climbing Salt Lake Center
03:48PM 43.4197 -109.0106 133° Southeast 479 551 32,000 660 Climbing Salt Lake Center
03:49PM 43.3158 -108.8572 133° Southeast 462 532 32,600 480 Climbing Salt Lake Center
03:50PM 43.2294 -108.7314 133° Southeast 455 524 33,100 180 Climbing Salt Lake Center
03:51PM 43.1428 -108.6056 133° Southeast 455 524 33,000 -60 Descending Salt Lake Center
03:52PM 43.0428 -108.4928 140° Southeast 465 535 33,000  Level Salt Lake Center
03:53PM 42.9361 -108.3900 145° Southeast 464 534 33,000  Level Salt Lake Center
03:54PM 42.8172 -108.2767 145° Southeast 466 536 33,000  Level Salt Lake Center
03:55PM 42.7158 -108.1789 145° Southeast 465 535 33,000  Level Salt Lake Center
03:56PM 42.5964 -108.0631 144° Southeast 471 542 33,000  Level Salt Lake Center
03:57PM 42.4969 -107.9639 144° Southeast 467 537 33,000  Level Salt Lake Center
03:58PM 42.3906 -107.8253 136° Southeast 473 544 33,000  Level Salt Lake Center
03:59PM 42.3133 -107.6894 128° Southeast 473 544 33,000  Level Salt Lake Center
04:00PM 42.2233 -107.5317 128° Southeast 474 545 33,000  Level Denver Center
04:01PM 42.1389 -107.4114 133° Southeast 461 531 33,000  Level Denver Center
04:02PM 42.0150 -107.3044 147° Southeast 465 535 33,000  Level Denver Center
04:03PM 41.9075 -107.2178 149° Southeast 466 536 33,000  Level Denver Center
04:04PM 41.7711 -107.1678 165° South 454 522 33,000  Level Denver Center
04:05PM 41.6531 -107.1281 166° South 455 524 33,000  Level Denver Center
04:06PM 41.5342 -107.0883 166° South 458 527 33,000  Level Denver Center
04:07PM 41.4111 -106.9919 150° Southeast 466 536 33,000  Level Denver Center
04:08PM 41.3147 -106.8872 141° Southeast 465 535 33,000  Level Denver Center
04:09PM 41.2133 -106.7475 134° Southeast 471 542 33,000  Level Denver Center
04:11PM 41.1300 -106.6275 133° Southeast 464 534 33,000  Level Denver Center
04:12PM 41.0106 -106.5417 152° Southeast 439 505 33,000  Level Denver Center
04:13PM 40.9039 -106.4917 160° South 426 490 33,000 -600 Level Denver Center
04:14PM 40.8178 -106.3581 130° Southeast 439 505 31,800 -1,440 Descending Denver Center
04:15PM 40.7286 -106.2514 138° Southeast 418 481 29,800 -1,560 Descending Denver Center
04:16PM 40.6186 -106.1506 145° Southeast 401 461 28,300 -1,200 Descending Denver Center
04:17PM 40.5342 -106.0628 142° Southeast 392 451 27,300 -960 Descending Denver Center
04:18PM 40.4883 -105.9264 114° Southeast 409 471 26,400 -840 Descending Denver Center
04:19PM 40.4483 -105.7800 110° East 420 483 25,600 -1,500 Descending Denver Center
04:20PM 40.4025 -105.6067 109° East 421 484 23,400 -1,860 Descending Denver Center
04:21PM 40.3656 -105.4722 110° East 405 466 21,800 -1,500 Descending Denver Center
04:22PM 40.3208 -105.3800 122° Southeast 355 409 20,300 -1,500 Descending Denver Center
04:23PM 40.2456 -105.2628 130° Southeast 338 389 18,800 -1,680 Descending Denver Center
04:24PM 40.1867 -105.1703 130° Southeast 332 382 16,900 -1,740 Descending Denver Center
04:25PM 40.1225 -105.0711 130° Southeast 334 384 15,300 -1,380 Descending Denver Center
04:26PM 40.0664 -104.9833 130° Southeast 317 365 14,100 -1,140 Descending Denver Center
04:27PM 40.0083 -104.8928 130° Southeast 306 352 13,000 -840 Descending Denver Center
04:28PM 39.9500 -104.8133 134° Southeast 305 351 12,400 -720 Descending Denver Center
04:29PM 39.8597 -104.8083 178° South 308 354 11,500 -720 Descending Denver Center
04:30PM 39.7786 -104.8100 181° South 293 337 11,000 -540 Descending Denver Center
04:31PM 39.7050 -104.8106 180° South 251 289 10,500 -1,020 Descending Denver Center
04:32PM 39.6856 -104.7400 110° East 254 292 9,000 -1,260 Descending Denver Center
04:33PM 39.7414 -104.7000 29° Northeast 210 242 7,900 -1,140 Descending Denver Center
04:35PM 39.7903 -104.6883 10° North 179 206 6,700 -900 Descending Denver Center
04:36PM 39.8364 -104.6872 North 157 181 5,900 -600 Descending Denver Center
04:37PM 39.8808 -104.6875 360° North 145 167 5,400 -540 Descending Denver Center